sensor_id;sensor_type;location;lat;lon;timestamp;P1;durP1;ratioP1;P2;durP2;ratioP2
25980;SDS011;13772;52.996;9.124;2024-02-21T09:07:54;14.77;;;9.00;;
25980;SDS011;13772;52.996;9.124;2024-02-21T09:10:19;19.50;;;9.13;;
25980;SDS011;13772;52.996;9.124;2024-02-21T09:12:45;18.40;;;10.38;;
25980;SDS011;13772;52.996;9.124;2024-02-21T09:15:10;17.15;;;10.30;;
25980;SDS011;13772;52.996;9.124;2024-02-21T09:17:35;19.20;;;9.57;;
25980;SDS011;13772;52.996;9.124;2024-02-21T09:20:01;18.15;;;10.52;;
25980;SDS011;13772;52.996;9.124;2024-02-21T09:22:28;20.48;;;10.85;;
25980;SDS011;13772;52.996;9.124;2024-02-21T09:24:53;18.10;;;10.30;;
25980;SDS011;13772;52.996;9.124;2024-02-21T09:27:18;17.73;;;10.77;;
25980;SDS011;13772;52.996;9.124;2024-02-21T09:29:44;19.35;;;10.27;;
25980;SDS011;13772;52.996;9.124;2024-02-21T09:32:09;21.85;;;11.38;;
25980;SDS011;13772;52.996;9.124;2024-02-21T09:34:34;23.65;;;11.25;;
25980;SDS011;13772;52.996;9.124;2024-02-21T09:36:59;19.10;;;11.23;;
25980;SDS011;13772;52.996;9.124;2024-02-21T09:39:25;18.67;;;10.25;;
25980;SDS011;13772;52.996;9.124;2024-02-21T09:41:50;21.38;;;10.98;;
25980;SDS011;13772;52.996;9.124;2024-02-21T09:44:18;22.60;;;11.40;;
25980;SDS011;13772;52.996;9.124;2024-02-21T09:49:26;17.58;;;10.68;;
25980;SDS011;13772;52.996;9.124;2024-02-21T09:51:54;21.83;;;10.48;;
25980;SDS011;13772;52.996;9.124;2024-02-21T09:54:20;20.02;;;10.32;;
25980;SDS011;13772;52.996;9.124;2024-02-21T09:56:46;19.50;;;10.00;;
25980;SDS011;13772;52.996;9.124;2024-02-21T09:59:12;21.75;;;10.50;;
25980;SDS011;13772;52.996;9.124;2024-02-21T10:01:38;24.65;;;11.30;;
25980;SDS011;13772;52.996;9.124;2024-02-21T10:04:04;16.42;;;10.18;;
25980;SDS011;13772;52.996;9.124;2024-02-21T10:06:29;21.73;;;10.75;;
25980;SDS011;13772;52.996;9.124;2024-02-21T10:08:55;19.08;;;10.57;;
25980;SDS011;13772;52.996;9.124;2024-02-21T10:11:24;18.55;;;10.63;;
25980;SDS011;13772;52.996;9.124;2024-02-21T10:13:49;19.92;;;10.13;;
25980;SDS011;13772;52.996;9.124;2024-02-21T10:16:15;21.00;;;9.73;;
25980;SDS011;13772;52.996;9.124;2024-02-21T10:18:40;17.35;;;10.43;;
25980;SDS011;13772;52.996;9.124;2024-02-21T10:21:06;19.50;;;11.00;;
25980;SDS011;13772;52.996;9.124;2024-02-21T10:23:43;17.38;;;10.35;;
25980;SDS011;13772;52.996;9.124;2024-02-21T10:26:09;19.73;;;10.13;;
25980;SDS011;13772;52.996;9.124;2024-02-21T10:28:34;20.80;;;10.13;;
25980;SDS011;13772;52.996;9.124;2024-02-21T10:30:59;16.80;;;10.30;;
25980;SDS011;13772;52.996;9.124;2024-02-21T10:33:24;17.60;;;9.20;;
25980;SDS011;13772;52.996;9.124;2024-02-21T10:35:52;16.92;;;10.23;;
25980;SDS011;13772;52.996;9.124;2024-02-21T10:38:18;17.45;;;9.80;;
25980;SDS011;13772;52.996;9.124;2024-02-21T10:40:43;15.50;;;8.88;;
25980;SDS011;13772;52.996;9.124;2024-02-21T10:43:10;14.20;;;8.68;;
25980;SDS011;13772;52.996;9.124;2024-02-21T10:45:37;16.95;;;8.80;;
25980;SDS011;13772;52.996;9.124;2024-02-21T10:48:10;15.73;;;9.32;;
25980;SDS011;13772;52.996;9.124;2024-02-21T10:50:57;12.32;;;7.97;;
25980;SDS011;13772;52.996;9.124;2024-02-21T10:53:36;17.02;;;8.10;;
25980;SDS011;13772;52.996;9.124;2024-02-21T10:58:34;15.95;;;8.20;;
25980;SDS011;13772;52.996;9.124;2024-02-21T11:00:59;14.73;;;8.40;;
25980;SDS011;13772;52.996;9.124;2024-02-21T11:03:25;14.07;;;8.32;;
25980;SDS011;13772;52.996;9.124;2024-02-21T11:05:50;16.08;;;8.38;;
25980;SDS011;13772;52.996;9.124;2024-02-21T11:08:16;21.60;;;8.73;;
25980;SDS011;13772;52.996;9.124;2024-02-21T11:10:45;14.90;;;8.55;;
25980;SDS011;13772;52.996;9.124;2024-02-21T11:13:11;19.27;;;8.87;;
25980;SDS011;13772;52.996;9.124;2024-02-21T11:15:36;13.13;;;7.60;;
25980;SDS011;13772;52.996;9.124;2024-02-21T11:18:01;12.30;;;7.68;;
25980;SDS011;13772;52.996;9.124;2024-02-21T11:20:33;18.15;;;8.00;;
25980;SDS011;13772;52.996;9.124;2024-02-21T11:23:01;17.00;;;8.10;;
25980;SDS011;13772;52.996;9.124;2024-02-21T11:25:27;16.42;;;7.90;;
25980;SDS011;13772;52.996;9.124;2024-02-21T11:28:00;16.50;;;8.02;;
25980;SDS011;13772;52.996;9.124;2024-02-21T11:30:32;15.30;;;7.60;;
25980;SDS011;13772;52.996;9.124;2024-02-21T11:33:05;13.43;;;8.35;;
25980;SDS011;13772;52.996;9.124;2024-02-21T11:35:31;16.48;;;7.43;;
25980;SDS011;13772;52.996;9.124;2024-02-21T11:38:07;17.10;;;9.00;;
25980;SDS011;13772;52.996;9.124;2024-02-21T11:40:33;13.55;;;7.68;;
25980;SDS011;13772;52.996;9.124;2024-02-21T11:42:59;14.85;;;8.68;;
25980;SDS011;13772;52.996;9.124;2024-02-21T11:45:25;14.82;;;8.65;;
25980;SDS011;13772;52.996;9.124;2024-02-21T11:47:51;13.90;;;7.63;;
25980;SDS011;13772;52.996;9.124;2024-02-21T11:50:16;16.33;;;8.07;;
25980;SDS011;13772;52.996;9.124;2024-02-21T11:52:41;15.35;;;7.60;;
25980;SDS011;13772;52.996;9.124;2024-02-21T11:55:06;13.00;;;7.45;;
25980;SDS011;13772;52.996;9.124;2024-02-21T11:57:33;12.70;;;7.28;;
25980;SDS011;13772;52.996;9.124;2024-02-21T12:00:10;13.57;;;7.60;;
25980;SDS011;13772;52.996;9.124;2024-02-21T12:02:35;15.90;;;8.10;;
25980;SDS011;13772;52.996;9.124;2024-02-21T12:05:00;15.27;;;8.15;;
25980;SDS011;13772;52.996;9.124;2024-02-21T12:07:25;11.70;;;7.25;;
25980;SDS011;13772;52.996;9.124;2024-02-21T12:09:53;15.45;;;7.28;;
25980;SDS011;13772;52.996;9.124;2024-02-21T12:12:21;12.50;;;6.80;;
25980;SDS011;13772;52.996;9.124;2024-02-21T12:14:47;16.42;;;7.43;;
25980;SDS011;13772;52.996;9.124;2024-02-21T12:17:18;13.60;;;6.03;;
25980;SDS011;13772;52.996;9.124;2024-02-21T12:19:44;15.60;;;6.93;;
25980;SDS011;13772;52.996;9.124;2024-02-21T12:22:15;12.23;;;5.85;;
25980;SDS011;13772;52.996;9.124;2024-02-21T12:24:41;13.88;;;6.05;;
25980;SDS011;13772;52.996;9.124;2024-02-21T12:27:12;8.98;;;5.40;;
25980;SDS011;13772;52.996;9.124;2024-02-21T12:29:37;13.63;;;6.65;;
25980;SDS011;13772;52.996;9.124;2024-02-21T12:32:02;9.15;;;5.00;;
25980;SDS011;13772;52.996;9.124;2024-02-21T12:34:29;9.40;;;4.50;;
25980;SDS011;13772;52.996;9.124;2024-02-21T12:36:56;11.48;;;4.55;;
25980;SDS011;13772;52.996;9.124;2024-02-21T12:39:22;10.00;;;4.57;;
25980;SDS011;13772;52.996;9.124;2024-02-21T12:41:47;9.65;;;3.85;;
25980;SDS011;13772;52.996;9.124;2024-02-21T12:44:12;11.18;;;4.30;;
25980;SDS011;13772;52.996;9.124;2024-02-21T12:46:38;8.82;;;4.25;;
25980;SDS011;13772;52.996;9.124;2024-02-21T12:49:04;12.57;;;3.78;;
25980;SDS011;13772;52.996;9.124;2024-02-21T12:51:33;10.73;;;4.18;;
25980;SDS011;13772;52.996;9.124;2024-02-21T12:53:58;8.32;;;3.97;;
25980;SDS011;13772;52.996;9.124;2024-02-21T12:56:24;11.25;;;3.92;;
25980;SDS011;13772;52.996;9.124;2024-02-21T12:58:49;11.75;;;3.92;;
25980;SDS011;13772;52.996;9.124;2024-02-21T13:01:14;8.07;;;4.25;;
25980;SDS011;13772;52.996;9.124;2024-02-21T13:03:40;8.15;;;3.70;;
25980;SDS011;13772;52.996;9.124;2024-02-21T13:06:06;7.05;;;4.10;;
25980;SDS011;13772;52.996;9.124;2024-02-21T13:08:35;8.40;;;3.97;;
25980;SDS011;13772;52.996;9.124;2024-02-21T13:11:01;8.77;;;3.60;;
25980;SDS011;13772;52.996;9.124;2024-02-21T13:13:26;7.40;;;4.03;;
25980;SDS011;13772;52.996;9.124;2024-02-21T13:15:51;9.45;;;4.53;;
25980;SDS011;13772;52.996;9.124;2024-02-21T13:18:16;7.07;;;4.32;;
25980;SDS011;13772;52.996;9.124;2024-02-21T13:20:41;10.20;;;4.60;;
25980;SDS011;13772;52.996;9.124;2024-02-21T13:23:07;8.70;;;4.15;;
25980;SDS011;13772;52.996;9.124;2024-02-21T13:25:32;7.47;;;4.05;;
25980;SDS011;13772;52.996;9.124;2024-02-21T13:27:57;8.57;;;4.47;;
25980;SDS011;13772;52.996;9.124;2024-02-21T13:30:22;9.32;;;4.68;;
25980;SDS011;13772;52.996;9.124;2024-02-21T13:32:48;8.23;;;4.47;;
25980;SDS011;13772;52.996;9.124;2024-02-21T13:35:13;7.70;;;4.95;;
25980;SDS011;13772;52.996;9.124;2024-02-21T13:37:39;7.28;;;4.32;;
25980;SDS011;13772;52.996;9.124;2024-02-21T13:40:05;7.20;;;5.10;;
25980;SDS011;13772;52.996;9.124;2024-02-21T13:42:30;9.60;;;6.13;;
25980;SDS011;13772;52.996;9.124;2024-02-21T13:44:55;6.95;;;5.10;;
25980;SDS011;13772;52.996;9.124;2024-02-21T13:47:21;9.45;;;5.60;;
25980;SDS011;13772;52.996;9.124;2024-02-21T13:49:46;9.88;;;5.22;;
25980;SDS011;13772;52.996;9.124;2024-02-21T13:52:11;8.50;;;4.95;;
25980;SDS011;13772;52.996;9.124;2024-02-21T13:54:36;11.50;;;5.70;;
25980;SDS011;13772;52.996;9.124;2024-02-21T13:57:02;7.47;;;5.10;;
25980;SDS011;13772;52.996;9.124;2024-02-21T13:59:27;9.93;;;5.47;;
25980;SDS011;13772;52.996;9.124;2024-02-21T14:01:52;9.30;;;5.10;;
25980;SDS011;13772;52.996;9.124;2024-02-21T14:04:18;7.57;;;5.35;;
25980;SDS011;13772;52.996;9.124;2024-02-21T14:06:43;10.05;;;5.38;;
25980;SDS011;13772;52.996;9.124;2024-02-21T14:09:09;8.00;;;5.20;;
25980;SDS011;13772;52.996;9.124;2024-02-21T14:11:34;7.15;;;5.15;;
25980;SDS011;13772;52.996;9.124;2024-02-21T14:13:59;10.05;;;5.05;;
25980;SDS011;13772;52.996;9.124;2024-02-21T14:16:25;8.45;;;4.50;;
25980;SDS011;13772;52.996;9.124;2024-02-21T14:18:50;8.48;;;4.55;;
25980;SDS011;13772;52.996;9.124;2024-02-21T14:21:15;7.32;;;4.70;;
25980;SDS011;13772;52.996;9.124;2024-02-21T14:23:40;6.93;;;3.85;;
25980;SDS011;13772;52.996;9.124;2024-02-21T14:26:06;11.23;;;4.57;;
25980;SDS011;13772;52.996;9.124;2024-02-21T14:28:34;12.32;;;4.00;;
25980;SDS011;13772;52.996;9.124;2024-02-21T14:30:59;7.78;;;3.97;;
25980;SDS011;13772;52.996;9.124;2024-02-21T14:33:25;6.70;;;4.18;;
25980;SDS011;13772;52.996;9.124;2024-02-21T14:35:51;9.13;;;4.15;;
25980;SDS011;13772;52.996;9.124;2024-02-21T14:38:17;7.50;;;3.80;;
25980;SDS011;13772;52.996;9.124;2024-02-21T14:40:43;6.22;;;3.92;;
25980;SDS011;13772;52.996;9.124;2024-02-21T14:43:08;7.35;;;3.83;;
25980;SDS011;13772;52.996;9.124;2024-02-21T14:45:33;9.30;;;3.88;;
25980;SDS011;13772;52.996;9.124;2024-02-21T14:47:59;9.35;;;4.20;;
25980;SDS011;13772;52.996;9.124;2024-02-21T14:50:24;7.20;;;3.78;;
25980;SDS011;13772;52.996;9.124;2024-02-21T14:52:49;9.27;;;4.00;;
25980;SDS011;13772;52.996;9.124;2024-02-21T14:55:14;9.13;;;5.18;;
25980;SDS011;13772;52.996;9.124;2024-02-21T14:57:40;11.30;;;5.50;;
25980;SDS011;13772;52.996;9.124;2024-02-21T15:00:08;9.95;;;4.57;;
25980;SDS011;13772;52.996;9.124;2024-02-21T15:02:33;10.68;;;5.00;;
25980;SDS011;13772;52.996;9.124;2024-02-21T15:05:00;8.88;;;4.80;;
25980;SDS011;13772;52.996;9.124;2024-02-21T15:07:25;9.77;;;5.40;;
25980;SDS011;13772;52.996;9.124;2024-02-21T15:09:51;10.85;;;5.40;;
25980;SDS011;13772;52.996;9.124;2024-02-21T15:12:16;10.85;;;4.97;;
25980;SDS011;13772;52.996;9.124;2024-02-21T15:14:42;9.60;;;5.65;;
25980;SDS011;13772;52.996;9.124;2024-02-21T15:17:09;8.98;;;5.13;;
25980;SDS011;13772;52.996;9.124;2024-02-21T15:19:34;7.75;;;5.18;;
25980;SDS011;13772;52.996;9.124;2024-02-21T15:21:59;9.60;;;5.40;;
25980;SDS011;13772;52.996;9.124;2024-02-21T15:24:24;9.20;;;5.53;;
25980;SDS011;13772;52.996;9.124;2024-02-21T15:26:50;10.82;;;5.47;;
25980;SDS011;13772;52.996;9.124;2024-02-21T15:29:16;11.48;;;5.75;;
25980;SDS011;13772;52.996;9.124;2024-02-21T15:31:41;10.82;;;5.97;;
25980;SDS011;13772;52.996;9.124;2024-02-21T15:34:11;13.45;;;6.53;;
25980;SDS011;13772;52.996;9.124;2024-02-21T15:36:36;13.23;;;6.05;;
25980;SDS011;13772;52.996;9.124;2024-02-21T15:39:01;12.43;;;6.07;;
25980;SDS011;13772;52.996;9.124;2024-02-21T15:41:28;13.50;;;5.70;;
25980;SDS011;13772;52.996;9.124;2024-02-21T15:43:53;12.88;;;6.15;;
25980;SDS011;13772;52.996;9.124;2024-02-21T15:46:18;14.15;;;5.88;;
25980;SDS011;13772;52.996;9.124;2024-02-21T15:48:44;14.02;;;6.32;;
25980;SDS011;13772;52.996;9.124;2024-02-21T15:51:11;15.27;;;6.63;;
25980;SDS011;13772;52.996;9.124;2024-02-21T15:53:36;11.75;;;5.68;;
25980;SDS011;13772;52.996;9.124;2024-02-21T15:56:03;13.55;;;6.55;;
25980;SDS011;13772;52.996;9.124;2024-02-21T15:58:28;12.15;;;6.15;;
25980;SDS011;13772;52.996;9.124;2024-02-21T16:00:54;12.43;;;6.07;;
25980;SDS011;13772;52.996;9.124;2024-02-21T16:03:19;13.80;;;6.95;;
25980;SDS011;13772;52.996;9.124;2024-02-21T16:05:45;14.10;;;6.55;;
25980;SDS011;13772;52.996;9.124;2024-02-21T16:08:10;13.63;;;5.90;;
25980;SDS011;13772;52.996;9.124;2024-02-21T16:10:35;15.57;;;6.93;;
25980;SDS011;13772;52.996;9.124;2024-02-21T16:13:00;11.70;;;6.43;;
25980;SDS011;13772;52.996;9.124;2024-02-21T16:15:25;13.15;;;5.68;;
25980;SDS011;13772;52.996;9.124;2024-02-21T16:17:51;15.13;;;6.45;;
25980;SDS011;13772;52.996;9.124;2024-02-21T16:20:16;13.68;;;5.93;;
25980;SDS011;13772;52.996;9.124;2024-02-21T16:22:42;16.02;;;6.03;;
25980;SDS011;13772;52.996;9.124;2024-02-21T16:25:07;11.05;;;5.95;;
25980;SDS011;13772;52.996;9.124;2024-02-21T16:27:34;13.20;;;6.32;;
25980;SDS011;13772;52.996;9.124;2024-02-21T16:29:59;12.85;;;5.93;;
25980;SDS011;13772;52.996;9.124;2024-02-21T16:32:24;13.68;;;6.13;;
25980;SDS011;13772;52.996;9.124;2024-02-21T16:34:51;14.95;;;6.00;;
25980;SDS011;13772;52.996;9.124;2024-02-21T16:37:17;15.95;;;6.75;;
25980;SDS011;13772;52.996;9.124;2024-02-21T16:39:42;13.93;;;6.70;;
25980;SDS011;13772;52.996;9.124;2024-02-21T16:42:07;13.90;;;5.80;;
25980;SDS011;13772;52.996;9.124;2024-02-21T16:44:32;14.90;;;5.63;;
25980;SDS011;13772;52.996;9.124;2024-02-21T16:46:58;10.60;;;4.40;;
25980;SDS011;13772;52.996;9.124;2024-02-21T16:49:23;12.77;;;4.75;;
25980;SDS011;13772;52.996;9.124;2024-02-21T16:51:48;9.10;;;4.75;;
25980;SDS011;13772;52.996;9.124;2024-02-21T16:54:17;13.13;;;4.53;;
25980;SDS011;13772;52.996;9.124;2024-02-21T16:56:46;9.85;;;4.13;;
25980;SDS011;13772;52.996;9.124;2024-02-21T16:59:11;10.55;;;4.63;;
25980;SDS011;13772;52.996;9.124;2024-02-21T17:01:37;11.52;;;4.68;;
25980;SDS011;13772;52.996;9.124;2024-02-21T17:04:05;10.20;;;3.53;;
25980;SDS011;13772;52.996;9.124;2024-02-21T17:06:32;10.88;;;5.40;;
25980;SDS011;13772;52.996;9.124;2024-02-21T17:08:57;7.72;;;4.40;;
25980;SDS011;13772;52.996;9.124;2024-02-21T17:11:22;12.32;;;4.93;;
25980;SDS011;13772;52.996;9.124;2024-02-21T17:13:47;10.60;;;4.45;;
25980;SDS011;13772;52.996;9.124;2024-02-21T17:16:13;11.77;;;5.88;;
25980;SDS011;13772;52.996;9.124;2024-02-21T17:18:38;13.48;;;6.13;;
25980;SDS011;13772;52.996;9.124;2024-02-21T17:21:03;9.82;;;4.65;;
25980;SDS011;13772;52.996;9.124;2024-02-21T17:23:29;10.50;;;4.65;;
25980;SDS011;13772;52.996;9.124;2024-02-21T17:25:54;11.35;;;4.82;;
25980;SDS011;13772;52.996;9.124;2024-02-21T17:28:21;10.63;;;4.80;;
25980;SDS011;13772;52.996;9.124;2024-02-21T17:30:46;10.18;;;4.72;;
25980;SDS011;13772;52.996;9.124;2024-02-21T17:33:12;9.45;;;4.53;;
25980;SDS011;13772;52.996;9.124;2024-02-21T17:35:38;12.52;;;5.13;;
25980;SDS011;13772;52.996;9.124;2024-02-21T17:38:05;10.15;;;4.70;;
25980;SDS011;13772;52.996;9.124;2024-02-21T17:40:31;9.77;;;4.70;;
25980;SDS011;13772;52.996;9.124;2024-02-21T17:42:57;13.48;;;5.22;;
25980;SDS011;13772;52.996;9.124;2024-02-21T17:45:22;10.90;;;4.55;;
25980;SDS011;13772;52.996;9.124;2024-02-21T17:47:47;10.02;;;4.60;;
25980;SDS011;13772;52.996;9.124;2024-02-21T17:50:13;9.52;;;4.20;;
25980;SDS011;13772;52.996;9.124;2024-02-21T17:52:38;10.20;;;4.35;;
25980;SDS011;13772;52.996;9.124;2024-02-21T17:55:04;9.52;;;4.47;;
25980;SDS011;13772;52.996;9.124;2024-02-21T17:57:30;11.38;;;4.82;;
25980;SDS011;13772;52.996;9.124;2024-02-21T17:59:55;8.63;;;4.38;;
25980;SDS011;13772;52.996;9.124;2024-02-21T18:02:20;7.90;;;3.90;;
25980;SDS011;13772;52.996;9.124;2024-02-21T18:04:48;8.13;;;3.70;;
25980;SDS011;13772;52.996;9.124;2024-02-21T18:07:14;7.40;;;4.15;;
25980;SDS011;13772;52.996;9.124;2024-02-21T18:09:39;11.25;;;4.15;;
25980;SDS011;13772;52.996;9.124;2024-02-21T18:12:04;8.85;;;3.97;;
25980;SDS011;13772;52.996;9.124;2024-02-21T18:14:29;11.48;;;3.72;;
25980;SDS011;13772;52.996;9.124;2024-02-21T18:16:55;10.63;;;3.80;;
25980;SDS011;13772;52.996;9.124;2024-02-21T18:19:20;8.73;;;3.75;;
25980;SDS011;13772;52.996;9.124;2024-02-21T18:21:46;10.38;;;3.97;;
25980;SDS011;13772;52.996;9.124;2024-02-21T18:24:11;10.30;;;4.03;;
25980;SDS011;13772;52.996;9.124;2024-02-21T18:26:37;10.30;;;3.97;;
25980;SDS011;13772;52.996;9.124;2024-02-21T18:29:02;9.43;;;3.72;;
25980;SDS011;13772;52.996;9.124;2024-02-21T18:31:27;12.18;;;3.13;;
25980;SDS011;13772;52.996;9.124;2024-02-21T18:33:52;9.07;;;3.60;;
25980;SDS011;13772;52.996;9.124;2024-02-21T18:36:18;10.50;;;3.75;;
25980;SDS011;13772;52.996;9.124;2024-02-21T18:38:43;12.85;;;4.28;;
25980;SDS011;13772;52.996;9.124;2024-02-21T18:41:08;11.88;;;3.97;;
25980;SDS011;13772;52.996;9.124;2024-02-21T18:43:34;11.73;;;3.95;;
25980;SDS011;13772;52.996;9.124;2024-02-21T18:45:59;10.30;;;3.63;;
25980;SDS011;13772;52.996;9.124;2024-02-21T18:48:25;8.32;;;3.47;;
25980;SDS011;13772;52.996;9.124;2024-02-21T18:50:50;12.95;;;3.90;;
25980;SDS011;13772;52.996;9.124;2024-02-21T18:53:15;8.68;;;3.50;;
25980;SDS011;13772;52.996;9.124;2024-02-21T18:55:40;8.70;;;3.40;;
25980;SDS011;13772;52.996;9.124;2024-02-21T18:58:06;9.43;;;4.07;;
25980;SDS011;13772;52.996;9.124;2024-02-21T19:00:31;8.80;;;3.83;;
25980;SDS011;13772;52.996;9.124;2024-02-21T19:02:56;11.95;;;3.65;;
25980;SDS011;13772;52.996;9.124;2024-02-21T19:05:22;9.00;;;3.42;;
25980;SDS011;13772;52.996;9.124;2024-02-21T19:07:48;9.02;;;3.20;;
25980;SDS011;13772;52.996;9.124;2024-02-21T19:10:13;11.05;;;3.47;;
25980;SDS011;13772;52.996;9.124;2024-02-21T19:12:42;7.40;;;3.30;;
25980;SDS011;13772;52.996;9.124;2024-02-21T19:15:07;6.55;;;2.75;;
25980;SDS011;13772;52.996;9.124;2024-02-21T19:17:32;12.55;;;3.55;;
25980;SDS011;13772;52.996;9.124;2024-02-21T19:19:58;7.80;;;3.00;;
25980;SDS011;13772;52.996;9.124;2024-02-21T19:22:23;7.25;;;2.55;;
25980;SDS011;13772;52.996;9.124;2024-02-21T19:24:53;12.25;;;3.15;;
25980;SDS011;13772;52.996;9.124;2024-02-21T19:27:19;12.25;;;2.92;;
25980;SDS011;13772;52.996;9.124;2024-02-21T19:29:44;10.90;;;3.08;;
25980;SDS011;13772;52.996;9.124;2024-02-21T19:32:09;8.95;;;3.17;;
25980;SDS011;13772;52.996;9.124;2024-02-21T19:34:34;8.55;;;3.38;;
25980;SDS011;13772;52.996;9.124;2024-02-21T19:37:00;10.68;;;2.97;;
25980;SDS011;13772;52.996;9.124;2024-02-21T19:39:26;12.55;;;3.10;;
25980;SDS011;13772;52.996;9.124;2024-02-21T19:41:51;7.95;;;2.88;;
25980;SDS011;13772;52.996;9.124;2024-02-21T19:44:17;9.32;;;2.90;;
25980;SDS011;13772;52.996;9.124;2024-02-21T19:46:46;11.25;;;2.85;;
25980;SDS011;13772;52.996;9.124;2024-02-21T19:49:11;8.77;;;3.05;;
25980;SDS011;13772;52.996;9.124;2024-02-21T19:51:37;12.00;;;3.30;;
25980;SDS011;13772;52.996;9.124;2024-02-21T19:54:02;9.55;;;3.10;;
25980;SDS011;13772;52.996;9.124;2024-02-21T19:56:28;8.20;;;3.17;;
25980;SDS011;13772;52.996;9.124;2024-02-21T19:58:53;7.40;;;2.95;;
25980;SDS011;13772;52.996;9.124;2024-02-21T20:01:19;7.35;;;3.10;;
25980;SDS011;13772;52.996;9.124;2024-02-21T20:03:45;7.90;;;2.90;;
25980;SDS011;13772;52.996;9.124;2024-02-21T20:06:10;10.57;;;3.42;;
25980;SDS011;13772;52.996;9.124;2024-02-21T20:08:35;9.38;;;3.00;;
25980;SDS011;13772;52.996;9.124;2024-02-21T20:11:00;9.88;;;3.00;;
25980;SDS011;13772;52.996;9.124;2024-02-21T20:13:25;11.82;;;2.67;;
25980;SDS011;13772;52.996;9.124;2024-02-21T20:15:51;6.70;;;3.15;;
25980;SDS011;13772;52.996;9.124;2024-02-21T20:18:16;11.27;;;3.30;;
25980;SDS011;13772;52.996;9.124;2024-02-21T20:20:41;10.38;;;2.88;;
25980;SDS011;13772;52.996;9.124;2024-02-21T20:23:07;14.10;;;3.30;;
25980;SDS011;13772;52.996;9.124;2024-02-21T20:25:39;12.70;;;3.50;;
25980;SDS011;13772;52.996;9.124;2024-02-21T20:28:04;9.15;;;4.05;;
25980;SDS011;13772;52.996;9.124;2024-02-21T20:30:30;11.93;;;3.15;;
25980;SDS011;13772;52.996;9.124;2024-02-21T20:32:55;9.63;;;3.08;;
25980;SDS011;13772;52.996;9.124;2024-02-21T20:35:21;8.23;;;2.53;;
25980;SDS011;13772;52.996;9.124;2024-02-21T20:37:46;6.80;;;2.88;;
25980;SDS011;13772;52.996;9.124;2024-02-21T20:40:11;9.73;;;2.78;;
25980;SDS011;13772;52.996;9.124;2024-02-21T20:42:36;13.68;;;3.60;;
25980;SDS011;13772;52.996;9.124;2024-02-21T20:45:02;9.15;;;3.17;;
25980;SDS011;13772;52.996;9.124;2024-02-21T20:47:27;8.38;;;2.83;;
25980;SDS011;13772;52.996;9.124;2024-02-21T20:49:52;7.55;;;3.20;;
25980;SDS011;13772;52.996;9.124;2024-02-21T20:52:23;10.50;;;3.70;;
25980;SDS011;13772;52.996;9.124;2024-02-21T20:54:48;9.20;;;3.47;;
25980;SDS011;13772;52.996;9.124;2024-02-21T20:57:13;11.18;;;3.80;;
25980;SDS011;13772;52.996;9.124;2024-02-21T20:59:39;8.63;;;3.55;;
25980;SDS011;13772;52.996;9.124;2024-02-21T21:02:04;10.93;;;3.38;;
25980;SDS011;13772;52.996;9.124;2024-02-21T21:04:30;6.95;;;2.95;;
25980;SDS011;13772;52.996;9.124;2024-02-21T21:06:55;10.43;;;2.92;;
25980;SDS011;13772;52.996;9.124;2024-02-21T21:09:20;6.30;;;2.70;;
25980;SDS011;13772;52.996;9.124;2024-02-21T21:11:45;10.32;;;2.88;;
25980;SDS011;13772;52.996;9.124;2024-02-21T21:14:11;10.95;;;3.22;;
25980;SDS011;13772;52.996;9.124;2024-02-21T21:16:36;8.30;;;3.10;;
25980;SDS011;13772;52.996;9.124;2024-02-21T21:19:01;9.77;;;2.83;;
25980;SDS011;13772;52.996;9.124;2024-02-21T21:21:26;5.72;;;2.83;;
25980;SDS011;13772;52.996;9.124;2024-02-21T21:23:52;8.38;;;2.80;;
25980;SDS011;13772;52.996;9.124;2024-02-21T21:26:17;11.93;;;3.17;;
25980;SDS011;13772;52.996;9.124;2024-02-21T21:28:42;8.57;;;2.97;;
25980;SDS011;13772;52.996;9.124;2024-02-21T21:31:07;9.35;;;2.90;;
25980;SDS011;13772;52.996;9.124;2024-02-21T21:33:32;8.60;;;3.00;;
25980;SDS011;13772;52.996;9.124;2024-02-21T21:35:58;8.60;;;2.70;;
25980;SDS011;13772;52.996;9.124;2024-02-21T21:38:23;8.57;;;2.88;;
25980;SDS011;13772;52.996;9.124;2024-02-21T21:40:48;5.38;;;2.55;;
25980;SDS011;13772;52.996;9.124;2024-02-21T21:43:14;6.03;;;2.40;;
25980;SDS011;13772;52.996;9.124;2024-02-21T21:45:39;8.52;;;2.88;;
25980;SDS011;13772;52.996;9.124;2024-02-21T21:48:04;7.22;;;3.28;;
25980;SDS011;13772;52.996;9.124;2024-02-21T21:50:30;8.15;;;2.53;;
25980;SDS011;13772;52.996;9.124;2024-02-21T21:52:55;5.18;;;2.22;;
25980;SDS011;13772;52.996;9.124;2024-02-21T21:55:20;8.13;;;2.55;;
25980;SDS011;13772;52.996;9.124;2024-02-21T21:57:46;9.75;;;2.83;;
25980;SDS011;13772;52.996;9.124;2024-02-21T22:00:11;5.30;;;2.45;;
25980;SDS011;13772;52.996;9.124;2024-02-21T22:02:40;5.25;;;2.58;;
25980;SDS011;13772;52.996;9.124;2024-02-21T22:05:05;5.13;;;2.00;;
25980;SDS011;13772;52.996;9.124;2024-02-21T22:07:31;8.32;;;2.55;;
25980;SDS011;13772;52.996;9.124;2024-02-21T22:09:56;9.38;;;2.78;;
25980;SDS011;13772;52.996;9.124;2024-02-21T22:12:21;10.13;;;2.88;;
25980;SDS011;13772;52.996;9.124;2024-02-21T22:14:46;7.53;;;2.47;;
25980;SDS011;13772;52.996;9.124;2024-02-21T22:17:11;6.70;;;2.53;;
25980;SDS011;13772;52.996;9.124;2024-02-21T22:19:36;8.52;;;3.20;;
25980;SDS011;13772;52.996;9.124;2024-02-21T22:22:02;7.75;;;2.88;;
25980;SDS011;13772;52.996;9.124;2024-02-21T22:24:29;8.35;;;2.92;;
25980;SDS011;13772;52.996;9.124;2024-02-21T22:26:54;6.65;;;3.35;;
25980;SDS011;13772;52.996;9.124;2024-02-21T22:29:20;7.60;;;3.65;;
25980;SDS011;13772;52.996;9.124;2024-02-21T22:31:45;5.72;;;2.95;;
25980;SDS011;13772;52.996;9.124;2024-02-21T22:34:10;5.75;;;2.65;;
25980;SDS011;13772;52.996;9.124;2024-02-21T22:36:35;6.53;;;3.03;;
25980;SDS011;13772;52.996;9.124;2024-02-21T22:39:00;6.28;;;3.10;;
25980;SDS011;13772;52.996;9.124;2024-02-21T22:41:25;6.63;;;3.83;;
25980;SDS011;13772;52.996;9.124;2024-02-21T22:43:51;6.53;;;2.78;;
25980;SDS011;13772;52.996;9.124;2024-02-21T22:46:16;6.45;;;2.75;;
25980;SDS011;13772;52.996;9.124;2024-02-21T22:48:41;6.35;;;3.28;;
